createdAt,value
2022-12-26T06:10:35.270Z,11.11
2022-12-26T06:13:01.814Z,11.12
2022-12-26T06:15:28.330Z,11.19
2022-12-26T06:17:56.557Z,11.21
2022-12-26T06:20:23.082Z,11.24
2022-12-26T06:22:49.548Z,11.29
2022-12-26T06:25:16.053Z,11.19
2022-12-26T06:27:43.721Z,11.24
2022-12-26T06:30:10.739Z,11.04
2022-12-26T06:32:37.620Z,11.24
2022-12-26T06:35:05.932Z,11.37
2022-12-26T06:37:33.536Z,11.33
2022-12-26T06:40:00.122Z,11.40
2022-12-26T06:42:27.126Z,11.41
2022-12-26T06:44:53.680Z,11.39
2022-12-26T06:47:20.260Z,11.33
2022-12-26T06:49:46.964Z,11.29
2022-12-26T06:52:14.899Z,11.35
2022-12-26T06:54:41.473Z,11.35
2022-12-26T06:57:08.003Z,11.37
2022-12-26T06:59:34.548Z,11.42
2022-12-26T07:02:02.085Z,11.42
2022-12-26T07:04:28.761Z,11.43
2022-12-26T07:06:55.288Z,11.46
2022-12-26T07:09:24.909Z,11.46
2022-12-26T07:11:54.159Z,11.48
2022-12-26T07:14:20.639Z,11.34
2022-12-26T07:16:47.441Z,11.36
2022-12-26T07:19:15.311Z,11.48
2022-12-26T07:21:42.753Z,11.46
2022-12-26T07:24:15.513Z,11.44
2022-12-26T07:26:42.272Z,11.49
2022-12-26T07:29:10.898Z,11.42
2022-12-26T07:31:37.833Z,11.44
2022-12-26T07:34:04.445Z,11.43
2022-12-26T07:36:31.074Z,11.44
2022-12-26T07:38:57.650Z,11.49
2022-12-26T07:41:42.983Z,11.51
2022-12-26T07:44:10.796Z,11.52
2022-12-26T07:46:37.513Z,11.52
2022-12-26T07:49:04.340Z,11.50
2022-12-26T07:51:31.000Z,11.52
2022-12-26T07:53:57.587Z,11.47
2022-12-26T07:56:24.099Z,11.49
2022-12-26T07:58:51.969Z,11.48
2022-12-26T08:01:18.901Z,11.41
2022-12-26T08:03:48.397Z,11.36
2022-12-26T08:06:15.078Z,11.42
2022-12-26T08:08:46.905Z,11.39
2022-12-26T08:11:20.354Z,11.29
2022-12-26T08:13:47.051Z,11.32
2022-12-26T08:16:14.687Z,11.33
2022-12-26T08:18:41.810Z,11.34
2022-12-26T08:21:09.089Z,11.35
2022-12-26T08:23:35.716Z,11.23
2022-12-26T08:26:06.681Z,11.35
2022-12-26T08:28:33.579Z,11.35
2022-12-26T08:31:00.190Z,11.39
2022-12-26T08:33:27.545Z,11.33
2022-12-26T08:35:54.100Z,11.28
2022-12-26T08:38:20.639Z,11.33
2022-12-26T08:40:55.328Z,11.30
2022-12-26T08:46:12.626Z,11.15
2022-12-26T08:48:40.727Z,10.96
2022-12-26T08:51:14.479Z,10.92
2022-12-26T08:53:41.143Z,10.97
2022-12-26T08:56:16.996Z,10.98
2022-12-26T08:58:44.215Z,11.00
2022-12-26T09:01:20.426Z,11.01
2022-12-26T09:03:48.252Z,10.99
2022-12-26T09:06:15.698Z,11.01
2022-12-26T09:08:42.876Z,11.07
2022-12-26T09:11:12.307Z,11.16
2022-12-26T09:13:40.279Z,11.31
2022-12-26T09:16:11.400Z,11.37
2022-12-26T09:18:38.957Z,11.30
2022-12-26T09:21:10.792Z,11.23
2022-12-26T09:23:38.168Z,11.16
2022-12-26T09:26:13.893Z,11.19
2022-12-26T09:28:41.773Z,11.30
2022-12-26T09:31:13.907Z,11.37
2022-12-26T09:33:41.030Z,11.30
2022-12-26T09:36:14.488Z,11.24
2022-12-26T09:38:42.517Z,11.26
2022-12-26T09:41:30.846Z,11.32
2022-12-26T09:44:17.539Z,11.31
2022-12-26T09:47:00.344Z,11.19
2022-12-26T09:49:38.269Z,11.25
2022-12-26T09:52:21.452Z,11.16
2022-12-26T09:54:54.626Z,11.15
2022-12-26T09:57:33.823Z,11.24
2022-12-26T10:00:04.281Z,11.24
2022-12-26T10:02:39.226Z,11.15
2022-12-26T10:05:06.537Z,11.10
2022-12-26T10:07:42.765Z,11.01
2022-12-26T10:10:25.598Z,10.91
2022-12-26T10:13:12.009Z,10.80
2022-12-26T10:15:48.126Z,10.87
2022-12-26T10:18:44.090Z,10.71
2022-12-26T10:21:52.622Z,10.87
2022-12-26T10:24:24.111Z,10.94
2022-12-26T10:26:56.609Z,10.81
2022-12-26T10:29:55.272Z,10.72
2022-12-26T10:32:32.463Z,10.62
2022-12-26T10:35:00.100Z,10.42
2022-12-26T10:37:39.285Z,10.51
2022-12-26T10:40:12.098Z,10.40
2022-12-26T10:42:42.031Z,10.32
2022-12-26T10:45:27.143Z,10.20
2022-12-26T10:47:54.682Z,10.21
2022-12-26T10:50:27.688Z,10.10
2022-12-26T10:52:55.930Z,10.14
2022-12-26T10:55:31.597Z,10.01
2022-12-26T10:58:16.789Z,9.97
2022-12-26T11:00:43.468Z,9.96
2022-12-26T11:03:18.622Z,9.86
2022-12-26T11:06:07.955Z,9.80
2022-12-26T11:08:50.264Z,9.84
2022-12-26T11:11:25.340Z,9.89
2022-12-26T11:14:01.648Z,9.91
2022-12-26T11:16:34.693Z,9.92
2022-12-26T11:19:01.966Z,9.97
2022-12-26T11:21:30.205Z,9.96
2022-12-26T11:24:08.804Z,9.89
2022-12-26T11:26:36.388Z,9.90
2022-12-26T11:29:13.548Z,9.96
2022-12-26T11:31:52.755Z,9.98
2022-12-26T11:34:29.217Z,9.95
2022-12-26T11:36:55.859Z,10.03
2022-12-26T11:39:27.234Z,10.09
2022-12-26T11:41:54.772Z,10.09
2022-12-26T11:44:24.888Z,10.04
2022-12-26T11:46:51.405Z,10.09
2022-12-26T11:49:26.252Z,10.06
2022-12-26T11:51:58.824Z,10.10
2022-12-26T11:54:47.772Z,10.18
2022-12-26T11:57:32.225Z,10.20
2022-12-26T12:00:21.919Z,10.18
2022-12-26T12:02:49.076Z,10.22
2022-12-26T12:05:36.995Z,10.08
2022-12-26T12:08:34.351Z,10.14
2022-12-26T12:11:22.213Z,10.16
2022-12-26T12:14:06.888Z,10.07
2022-12-26T12:16:33.433Z,10.07
2022-12-26T12:19:15.433Z,10.07
2022-12-26T12:21:44.829Z,10.01
2022-12-26T12:24:26.409Z,10.02
2022-12-26T12:27:21.007Z,9.99
2022-12-26T12:30:12.199Z,9.97
2022-12-26T12:33:00.958Z,10.04
2022-12-26T12:35:34.223Z,9.93
2022-12-26T12:38:19.251Z,10.01
2022-12-26T12:40:51.975Z,10.08
2022-12-26T12:43:49.358Z,10.11
2022-12-26T12:46:31.049Z,10.12
2022-12-26T12:48:57.487Z,10.15
2022-12-26T12:51:34.927Z,10.15
2022-12-26T12:54:33.854Z,10.27
2022-12-26T12:57:19.086Z,10.14
2022-12-26T12:59:48.505Z,10.36
2022-12-26T13:02:30.014Z,10.33
2022-12-26T13:05:28.249Z,10.36
2022-12-26T13:08:02.016Z,10.21
2022-12-26T13:10:34.572Z,10.26
2022-12-26T13:13:22.816Z,10.07
2022-12-26T13:15:54.313Z,10.08
2022-12-26T13:18:24.969Z,10.03
2022-12-26T13:20:55.853Z,10.02
2022-12-26T13:23:52.306Z,10.04
2022-12-26T13:26:27.099Z,10.02
2022-12-26T13:29:11.790Z,9.99
2022-12-26T13:31:40.481Z,10.04
2022-12-26T13:34:16.578Z,10.14
2022-12-26T13:36:49.111Z,10.18
2022-12-26T13:39:20.991Z,10.07
2022-12-26T13:42:12.463Z,10.09
2022-12-26T13:44:41.386Z,10.11
2022-12-26T13:47:35.796Z,10.08
2022-12-26T13:50:40.139Z,10.10
2022-12-26T13:53:39.260Z,10.13
2022-12-26T13:56:18.744Z,10.02
2022-12-26T13:58:51.217Z,10.02
2022-12-26T14:01:36.446Z,10.01
2022-12-26T14:04:27.381Z,9.98
2022-12-26T14:07:24.827Z,10.06
2022-12-26T14:10:17.168Z,10.04
2022-12-26T14:13:03.507Z,9.99
2022-12-26T14:15:51.762Z,9.86
2022-12-26T14:18:48.840Z,9.85
2022-12-26T14:21:44.111Z,9.82
2022-12-26T14:24:13.175Z,9.85
2022-12-26T14:26:48.621Z,9.92
2022-12-26T14:29:17.837Z,9.87
2022-12-26T14:32:06.591Z,9.84
2022-12-26T14:35:01.469Z,9.86
2022-12-26T14:37:35.679Z,9.80
2022-12-26T14:40:15.500Z,9.77
2022-12-26T14:43:12.823Z,9.80
2022-12-26T14:45:50.670Z,9.89
2022-12-26T14:48:17.128Z,9.89
2022-12-26T14:50:57.676Z,9.77
2022-12-26T14:53:24.295Z,9.66
2022-12-26T14:55:52.613Z,9.63
2022-12-26T14:58:27.569Z,9.66
2022-12-26T15:00:55.363Z,9.67
2022-12-26T15:03:37.201Z,9.70
2022-12-26T15:06:18.695Z,9.78
2022-12-26T15:09:16.437Z,9.80
2022-12-26T15:12:04.922Z,9.77
2022-12-26T15:14:45.949Z,9.86
2022-12-26T15:17:37.369Z,9.67
2022-12-26T15:20:25.616Z,9.84
2022-12-26T15:23:37.314Z,9.77
2022-12-26T15:26:09.877Z,9.78
2022-12-26T15:28:54.787Z,9.72
2022-12-26T15:31:33.006Z,9.79
2022-12-26T15:34:11.472Z,9.75
2022-12-26T15:36:59.709Z,9.57
2022-12-26T15:39:44.460Z,9.87
2022-12-26T15:42:34.541Z,9.71
2022-12-26T15:45:27.936Z,9.64
2022-12-26T15:48:14.668Z,9.61
2022-12-26T15:51:07.473Z,9.52
2022-12-26T15:53:52.607Z,9.49
2022-12-26T15:56:47.223Z,9.54
2022-12-26T15:59:13.699Z,9.53
2022-12-26T16:01:42.962Z,9.49
2022-12-26T16:04:34.135Z,9.51
2022-12-26T16:07:09.025Z,9.45
2022-12-26T16:09:47.076Z,9.45
2022-12-26T16:12:22.054Z,9.47
2022-12-26T16:14:48.887Z,9.39
2022-12-26T16:17:15.363Z,9.46
2022-12-26T16:19:43.822Z,9.37
2022-12-26T16:22:43.533Z,9.47
2022-12-26T16:25:30.491Z,9.50
2022-12-26T16:27:59.891Z,9.44
2022-12-26T16:30:30.838Z,9.47
2022-12-26T16:32:57.930Z,9.54
2022-12-26T16:35:26.761Z,9.46
2022-12-26T16:37:55.173Z,9.37
2022-12-26T16:40:24.083Z,9.48
2022-12-26T16:43:06.260Z,9.55
2022-12-26T16:45:38.431Z,9.44
2022-12-26T16:48:07.937Z,9.46
2022-12-26T16:50:39.488Z,9.49
2022-12-26T16:53:13.786Z,9.65
2022-12-26T16:55:44.269Z,9.59
2022-12-26T16:58:23.426Z,9.44
2022-12-26T17:01:16.710Z,9.53
2022-12-26T17:04:00.614Z,9.54
2022-12-26T17:06:36.805Z,9.45
2022-12-26T17:09:12.839Z,9.46
2022-12-26T17:12:04.813Z,9.53
2022-12-26T17:14:34.871Z,9.47
2022-12-26T17:17:25.822Z,9.44
2022-12-26T17:19:55.663Z,9.44
2022-12-26T17:22:30.092Z,9.43
2022-12-26T17:25:15.448Z,9.40
2022-12-26T17:27:42.094Z,9.44
2022-12-26T17:30:28.916Z,9.44
2022-12-26T17:33:04.412Z,9.32
2022-12-26T17:36:13.558Z,9.41
2022-12-26T17:38:25.257Z,9.30
2022-12-26T17:40:58.116Z,9.39
2022-12-26T17:43:32.109Z,9.28
2022-12-26T17:45:58.676Z,9.35
2022-12-26T17:48:25.396Z,9.38
2022-12-26T17:50:58.113Z,9.41
2022-12-26T17:53:37.020Z,9.41
2022-12-26T17:56:10.933Z,9.46
2022-12-26T17:58:38.470Z,9.53
2022-12-26T18:01:05.501Z,9.53
2022-12-26T18:03:32.144Z,9.59
2022-12-26T18:06:18.134Z,9.58
2022-12-26T18:09:04.989Z,9.58
2022-12-26T18:11:52.340Z,9.67
2022-12-26T18:14:39.219Z,9.41
2022-12-26T18:17:26.187Z,9.53
2022-12-26T18:20:24.439Z,9.60
2022-12-26T18:23:11.340Z,9.60
2022-12-26T18:26:08.612Z,9.70
2022-12-26T18:28:55.468Z,9.40
2022-12-26T18:31:42.362Z,9.60
2022-12-26T18:34:29.308Z,9.69
2022-12-26T18:37:16.295Z,9.68
2022-12-26T18:40:03.780Z,9.65
2022-12-26T18:42:50.708Z,9.62
2022-12-26T18:45:38.182Z,9.77
2022-12-26T18:48:25.055Z,9.73
2022-12-26T18:51:12.648Z,9.52
2022-12-26T18:53:59.483Z,9.34
2022-12-26T18:56:46.630Z,9.27
2022-12-26T18:59:34.221Z,9.15
2022-12-26T19:02:21.178Z,9.09
2022-12-26T19:05:16.940Z,8.94
2022-12-26T19:08:03.943Z,8.85
2022-12-26T19:10:50.753Z,8.57
2022-12-26T19:13:37.616Z,8.37
2022-12-26T19:16:24.498Z,8.29
2022-12-26T19:19:11.347Z,8.27
2022-12-26T19:21:58.388Z,8.25
2022-12-26T19:24:45.900Z,8.22
2022-12-26T19:27:32.708Z,8.15
2022-12-26T19:30:20.528Z,8.03
2022-12-26T19:33:07.953Z,8.10
2022-12-26T19:35:55.811Z,7.89
2022-12-26T19:38:42.786Z,8.14
2022-12-26T19:41:29.612Z,8.20
2022-12-26T19:44:16.422Z,8.19
2022-12-26T19:47:11.010Z,8.16
2022-12-26T19:49:59.632Z,8.19
2022-12-26T19:52:46.471Z,8.19
2022-12-26T19:55:34.432Z,8.34
2022-12-26T19:58:21.331Z,8.14
2022-12-26T20:01:12.031Z,8.19
2022-12-26T20:04:02.063Z,8.22
2022-12-26T20:06:49.003Z,8.20
2022-12-26T20:09:35.995Z,8.09
2022-12-26T20:12:24.357Z,8.05
2022-12-26T20:15:11.190Z,7.98
2022-12-26T20:17:58.113Z,7.83
2022-12-26T20:20:53.029Z,7.83
2022-12-26T20:23:41.076Z,8.10
2022-12-26T20:26:28.989Z,7.90
2022-12-26T20:29:16.429Z,7.87
2022-12-26T20:32:03.362Z,7.79
2022-12-26T20:34:50.220Z,7.80
2022-12-26T20:37:37.133Z,7.79
2022-12-26T20:40:25.432Z,7.61
2022-12-26T20:43:12.399Z,7.79
2022-12-26T20:46:09.317Z,7.86
2022-12-26T20:48:56.252Z,7.85
